createdAt,value
2018-05-26T00:00:41.523Z,14.20
2018-05-26T00:03:08.253Z,13.57
2018-05-26T00:05:34.904Z,13.48
2018-05-26T00:08:01.539Z,14.40
2018-05-26T00:10:28.182Z,15.80
2018-05-26T00:12:54.920Z,14.55
2018-05-26T00:15:21.553Z,12.88
2018-05-26T00:17:48.188Z,12.82
2018-05-26T00:20:14.828Z,14.07
2018-05-26T00:22:47.319Z,12.98
2018-05-26T00:25:14.069Z,13.80
2018-05-26T00:27:40.828Z,13.90
2018-05-26T00:30:07.570Z,14.20
2018-05-26T00:32:34.285Z,13.82
2018-05-26T00:35:00.921Z,13.02
2018-05-26T00:37:27.558Z,14.10
2018-05-26T00:39:54.182Z,13.95
2018-05-26T00:42:20.821Z,13.48
2018-05-26T00:44:47.441Z,12.98
2018-05-26T00:47:14.109Z,14.02
2018-05-26T00:49:40.744Z,15.25
2018-05-26T00:52:07.402Z,15.10
2018-05-26T00:54:34.137Z,15.32
2018-05-26T00:57:00.773Z,14.65
2018-05-26T00:59:27.427Z,14.02
2018-05-26T01:01:54.045Z,12.88
2018-05-26T01:04:20.688Z,14.38
2018-05-26T01:06:47.464Z,13.95
2018-05-26T01:09:14.081Z,13.77
2018-05-26T01:11:40.721Z,12.57
2018-05-26T01:14:07.482Z,14.05
2018-05-26T01:16:34.111Z,12.18
2018-05-26T01:19:00.828Z,14.63
2018-05-26T01:21:27.456Z,12.80
2018-05-26T01:23:54.098Z,13.35
2018-05-26T01:26:20.725Z,12.43
2018-05-26T01:28:47.394Z,13.75
2018-05-26T01:31:14.026Z,13.20
2018-05-26T01:33:40.652Z,14.45
2018-05-26T01:36:07.292Z,13.18
2018-05-26T01:38:33.941Z,14.68
2018-05-26T01:41:00.581Z,12.52
2018-05-26T01:43:27.229Z,13.40
2018-05-26T01:45:53.845Z,12.77
2018-05-26T01:48:20.497Z,13.73
2018-05-26T01:50:47.149Z,14.13
2018-05-26T01:53:13.885Z,13.00
2018-05-26T01:55:40.631Z,14.40
2018-05-26T01:58:07.249Z,15.15
2018-05-26T02:00:33.907Z,14.87
2018-05-26T02:03:00.529Z,13.80
2018-05-26T02:05:27.178Z,13.93
2018-05-26T02:07:53.922Z,14.25
2018-05-26T02:10:20.563Z,14.35
2018-05-26T02:12:47.210Z,14.27
2018-05-26T02:15:13.938Z,14.15
2018-05-26T02:17:40.567Z,15.43
2018-05-26T02:20:07.201Z,13.50
2018-05-26T02:22:33.828Z,14.13
2018-05-26T02:25:00.474Z,14.13
2018-05-26T02:27:27.100Z,14.25
2018-05-26T02:29:53.727Z,14.95
2018-05-26T02:32:20.419Z,21.80
2018-05-26T02:34:47.149Z,14.43
2018-05-26T02:37:13.788Z,15.80
2018-05-26T02:39:40.439Z,17.02
2018-05-26T02:42:07.205Z,21.87
2018-05-26T02:44:33.844Z,15.40
2018-05-26T02:47:00.469Z,14.95
2018-05-26T02:49:27.105Z,16.08
2018-05-26T02:51:53.726Z,14.87
2018-05-26T02:54:20.358Z,16.95
2018-05-26T02:56:47.039Z,15.45
2018-05-26T02:59:13.662Z,16.00
2018-05-26T03:01:40.301Z,15.93
2018-05-26T03:04:06.560Z,15.73
2018-05-26T03:06:39.074Z,16.42
2018-05-26T03:09:11.415Z,18.35
2018-05-26T03:11:43.896Z,17.95
2018-05-26T03:14:16.356Z,18.48
2018-05-26T03:16:51.546Z,20.67
2018-05-26T03:19:18.181Z,18.48
2018-05-26T03:21:44.800Z,20.15
2018-05-26T03:24:11.468Z,20.65
2018-05-26T03:26:38.114Z,20.50
2018-05-26T03:29:04.758Z,20.25
2018-05-26T03:31:31.398Z,20.23
2018-05-26T03:33:58.134Z,20.25
2018-05-26T03:36:24.771Z,19.02
2018-05-26T03:38:51.425Z,21.20
2018-05-26T03:41:18.059Z,19.33
2018-05-26T03:43:44.796Z,19.35
2018-05-26T03:46:11.430Z,18.10
2018-05-26T03:48:38.052Z,19.85
2018-05-26T03:51:04.685Z,20.65
2018-05-26T03:53:31.308Z,19.20
2018-05-26T03:56:03.958Z,19.23
2018-05-26T03:58:36.409Z,17.80
2018-05-26T04:01:03.050Z,17.48
2018-05-26T04:03:29.677Z,17.75
2018-05-26T04:05:56.505Z,17.30
2018-05-26T04:08:23.065Z,17.00
2018-05-26T04:10:49.800Z,19.08
2018-05-26T04:13:16.439Z,18.35
2018-05-26T04:15:43.061Z,18.45
2018-05-26T04:18:09.721Z,17.08
2018-05-26T04:20:36.365Z,16.23
2018-05-26T04:23:02.984Z,17.10
2018-05-26T04:25:29.625Z,16.83
2018-05-26T04:27:56.257Z,17.05
2018-05-26T04:30:22.892Z,17.35
2018-05-26T04:32:49.521Z,18.05
2018-05-26T04:35:16.142Z,18.42
2018-05-26T04:37:42.779Z,16.02
2018-05-26T04:40:09.401Z,16.23
2018-05-26T04:42:36.118Z,17.10
2018-05-26T04:45:02.765Z,18.33
2018-05-26T04:47:29.385Z,16.60
2018-05-26T04:49:56.026Z,15.55
2018-05-26T04:52:22.697Z,16.15
2018-05-26T04:54:49.409Z,15.68
2018-05-26T04:57:16.145Z,14.82
2018-05-26T04:59:42.771Z,13.80
2018-05-26T05:02:09.411Z,14.80
2018-05-26T05:04:36.038Z,15.25
2018-05-26T05:07:02.682Z,16.40
2018-05-26T05:09:29.340Z,15.20
2018-05-26T05:11:55.976Z,14.55
2018-05-26T05:14:22.617Z,14.73
2018-05-26T05:16:49.266Z,14.70
2018-05-26T05:19:16.002Z,14.87
2018-05-26T05:21:42.642Z,14.25
2018-05-26T05:24:09.266Z,14.00
2018-05-26T05:26:35.898Z,14.20
2018-05-26T05:29:03.373Z,15.88
2018-05-26T05:31:30.018Z,13.60
2018-05-26T05:33:56.687Z,15.48
2018-05-26T05:36:23.310Z,15.07
2018-05-26T05:38:49.941Z,15.18
2018-05-26T05:41:16.677Z,15.65
2018-05-26T05:43:43.304Z,13.60
2018-05-26T05:46:09.921Z,14.55
2018-05-26T05:48:36.562Z,13.80
2018-05-26T05:51:03.194Z,15.55
2018-05-26T05:53:31.623Z,14.98
2018-05-26T05:55:58.260Z,15.05
2018-05-26T05:58:24.880Z,14.25
2018-05-26T06:00:51.535Z,14.82
2018-05-26T06:03:18.268Z,15.85
2018-05-26T06:05:44.894Z,16.58
2018-05-26T06:08:11.515Z,17.65
2018-05-26T06:10:38.149Z,16.20
2018-05-26T06:13:04.835Z,18.48
2018-05-26T06:15:31.531Z,18.05
2018-05-26T06:17:58.200Z,17.55
2018-05-26T06:20:24.845Z,17.48
2018-05-26T06:22:51.475Z,17.08
2018-05-26T06:25:18.124Z,18.42
2018-05-26T06:27:44.742Z,17.10
2018-05-26T06:30:11.361Z,17.90
2018-05-26T06:32:38.045Z,15.88
2018-05-26T06:35:04.665Z,17.87
2018-05-26T06:37:31.300Z,16.23
2018-05-26T06:39:57.933Z,16.23
2018-05-26T06:42:24.600Z,15.60
2018-05-26T06:44:51.227Z,17.55
2018-05-26T06:47:17.862Z,15.10
2018-05-26T06:49:44.522Z,14.90
2018-05-26T06:52:11.145Z,14.82
2018-05-26T06:54:37.897Z,16.37
2018-05-26T06:57:04.523Z,16.27
2018-05-26T06:59:31.145Z,16.05
2018-05-26T07:01:57.790Z,13.85
2018-05-26T07:04:24.454Z,17.15
2018-05-26T07:06:51.090Z,15.07
2018-05-26T07:09:17.730Z,14.68
2018-05-26T07:11:44.360Z,13.70
2018-05-26T07:14:11.010Z,15.15
2018-05-26T07:16:37.645Z,14.02
2018-05-26T07:19:04.276Z,14.15
2018-05-26T07:21:30.914Z,14.20
2018-05-26T07:23:57.554Z,13.90
2018-05-26T07:26:24.210Z,12.45
2018-05-26T07:28:50.839Z,13.80
2018-05-26T07:31:17.590Z,11.95
2018-05-26T07:33:44.245Z,11.75
2018-05-26T07:36:10.877Z,10.70
2018-05-26T07:38:37.535Z,11.48
2018-05-26T07:41:04.256Z,9.85
2018-05-26T07:43:30.982Z,9.30
2018-05-26T07:45:57.730Z,9.65
2018-05-26T07:48:24.349Z,9.73
2018-05-26T07:50:51.014Z,8.73
2018-05-26T07:53:17.680Z,10.23
2018-05-26T07:55:44.290Z,10.07
2018-05-26T07:58:10.921Z,9.75
2018-05-26T08:00:37.561Z,9.35
2018-05-26T08:03:04.181Z,9.02
2018-05-26T08:05:30.873Z,9.60
2018-05-26T08:07:57.497Z,9.45
2018-05-26T08:10:24.215Z,10.32
2018-05-26T08:12:50.858Z,10.25
2018-05-26T08:15:17.506Z,9.40
2018-05-26T08:17:44.242Z,10.35
2018-05-26T08:20:10.882Z,10.05
2018-05-26T08:22:37.513Z,9.55
2018-05-26T08:25:04.159Z,8.65
2018-05-26T08:27:30.827Z,10.07
2018-05-26T08:29:57.534Z,9.70
2018-05-26T08:32:24.140Z,9.60
2018-05-26T08:34:50.767Z,8.88
2018-05-26T08:37:17.397Z,9.25
2018-05-26T08:39:44.005Z,8.48
2018-05-26T08:42:10.635Z,7.82
2018-05-26T08:44:37.282Z,8.07
2018-05-26T08:47:03.901Z,7.45
2018-05-26T08:49:30.529Z,7.60
2018-05-26T08:51:57.190Z,6.47
2018-05-26T08:54:23.921Z,6.18
2018-05-26T08:56:50.570Z,6.07
2018-05-26T08:59:17.205Z,4.18
2018-05-26T09:01:43.837Z,4.45
2018-05-26T09:04:10.482Z,4.20
2018-05-26T09:06:37.110Z,4.97
2018-05-26T09:09:03.726Z,4.78
2018-05-26T09:11:30.346Z,5.43
2018-05-26T09:13:57.036Z,5.22
2018-05-26T09:16:23.777Z,4.22
2018-05-26T09:18:50.411Z,4.32
2018-05-26T09:21:17.017Z,4.35
2018-05-26T09:23:43.699Z,4.65
2018-05-26T09:26:10.335Z,4.25
2018-05-26T09:28:36.980Z,4.45
2018-05-26T09:31:03.604Z,3.85
2018-05-26T09:33:30.221Z,4.12
2018-05-26T09:35:56.902Z,4.45
2018-05-26T09:38:23.633Z,3.95
2018-05-26T09:40:50.244Z,4.78
2018-05-26T09:43:16.878Z,3.45
2018-05-26T09:45:43.497Z,3.80
2018-05-26T09:48:10.192Z,4.60
2018-05-26T09:50:36.820Z,3.80
2018-05-26T09:53:03.443Z,4.70
2018-05-26T09:55:30.068Z,4.00
2018-05-26T09:57:56.741Z,4.53
2018-05-26T10:00:23.365Z,3.83
2018-05-26T10:02:49.988Z,4.82
2018-05-26T10:05:16.664Z,5.60
2018-05-26T10:07:43.410Z,4.57
2018-05-26T10:10:10.040Z,5.07
2018-05-26T10:12:36.657Z,4.30
2018-05-26T10:15:03.316Z,4.70
2018-05-26T10:17:29.977Z,4.47
2018-05-26T10:19:56.593Z,4.18
2018-05-26T10:22:23.245Z,4.22
2018-05-26T10:24:49.861Z,4.10
2018-05-26T10:27:16.500Z,4.10
2018-05-26T10:29:43.146Z,3.00
2018-05-26T10:32:09.814Z,3.55
2018-05-26T10:34:36.443Z,4.22
2018-05-26T10:37:03.082Z,4.37
2018-05-26T10:39:29.713Z,4.00
2018-05-26T10:41:56.361Z,4.20
2018-05-26T10:44:23.004Z,3.80
2018-05-26T10:46:49.633Z,3.70
2018-05-26T10:49:16.375Z,4.03
2018-05-26T10:51:43.014Z,3.50
2018-05-26T10:54:09.634Z,3.97
2018-05-26T10:56:36.263Z,3.17
2018-05-26T10:59:02.929Z,3.83
2018-05-26T11:01:29.550Z,2.57
2018-05-26T11:03:56.217Z,2.33
2018-05-26T11:06:22.949Z,3.63
2018-05-26T11:08:49.574Z,3.60
2018-05-26T11:11:16.201Z,3.00
2018-05-26T11:13:42.842Z,3.23
2018-05-26T11:16:09.608Z,3.10
2018-05-26T11:18:36.138Z,3.23
2018-05-26T11:21:02.762Z,3.63
2018-05-26T11:23:29.421Z,5.30
2018-05-26T11:25:56.046Z,4.80
2018-05-26T11:28:22.661Z,3.60
2018-05-26T11:30:49.324Z,7.23
2018-05-26T11:33:15.932Z,6.30
2018-05-26T11:35:43.429Z,5.53
2018-05-26T11:38:10.062Z,3.40
2018-05-26T11:40:36.679Z,3.10
2018-05-26T11:43:03.300Z,3.93
2018-05-26T11:45:29.932Z,4.07
2018-05-26T11:47:56.639Z,3.80
2018-05-26T11:50:23.273Z,3.70
2018-05-26T11:52:49.904Z,4.07
2018-05-26T11:55:16.538Z,4.00
2018-05-26T11:57:43.180Z,3.93
2018-05-26T12:00:09.797Z,3.20
2018-05-26T12:02:36.422Z,3.17
2018-05-26T12:05:03.106Z,3.50
2018-05-26T12:07:29.751Z,3.90
2018-05-26T12:09:56.376Z,4.20
2018-05-26T12:12:23.017Z,3.73
2018-05-26T12:14:49.640Z,3.37
2018-05-26T12:17:16.306Z,3.30
2018-05-26T12:19:42.914Z,3.47
2018-05-26T12:22:09.588Z,3.37
2018-05-26T12:24:36.317Z,3.57
2018-05-26T12:27:02.958Z,3.17
2018-05-26T12:29:29.564Z,3.23
2018-05-26T12:31:56.188Z,3.27
2018-05-26T12:34:22.822Z,3.80
2018-05-26T12:36:49.429Z,2.47
2018-05-26T12:39:16.054Z,3.27
2018-05-26T12:41:42.665Z,3.47
2018-05-26T12:44:09.334Z,2.70
2018-05-26T12:46:35.969Z,2.47
2018-05-26T12:49:02.587Z,3.27
2018-05-26T12:51:29.224Z,3.40
2018-05-26T12:53:55.883Z,3.50
2018-05-26T12:56:22.488Z,3.07
2018-05-26T12:58:49.175Z,3.90
2018-05-26T13:01:15.786Z,3.43
2018-05-26T13:03:42.413Z,2.83
2018-05-26T13:06:09.033Z,3.17
2018-05-26T13:08:35.728Z,2.37
2018-05-26T13:11:02.378Z,2.53
2018-05-26T13:13:29.104Z,2.90
2018-05-26T13:15:55.743Z,3.00
2018-05-26T13:18:22.373Z,2.77
2018-05-26T13:20:48.980Z,2.50
2018-05-26T13:23:15.665Z,2.20
2018-05-26T13:25:42.293Z,2.90
2018-05-26T13:28:08.916Z,2.40
2018-05-26T13:30:35.529Z,2.87
2018-05-26T13:33:02.245Z,3.10
2018-05-26T13:35:28.962Z,2.87
2018-05-26T13:37:55.581Z,2.57
2018-05-26T13:40:22.209Z,2.73
2018-05-26T13:42:48.887Z,3.13
2018-05-26T13:45:15.626Z,3.13
2018-05-26T13:47:42.353Z,2.20
2018-05-26T13:50:08.993Z,2.57
2018-05-26T13:52:35.641Z,2.50
2018-05-26T13:55:02.318Z,3.00
2018-05-26T13:57:28.896Z,2.87
2018-05-26T13:59:55.521Z,2.50
2018-05-26T14:02:22.195Z,2.90
2018-05-26T14:04:48.926Z,2.70
2018-05-26T14:07:15.580Z,2.80
2018-05-26T14:09:42.218Z,3.07
2018-05-26T14:12:08.856Z,3.03
2018-05-26T14:14:35.465Z,3.43
2018-05-26T14:17:02.103Z,2.83
2018-05-26T14:19:28.721Z,3.13
2018-05-26T14:21:55.332Z,3.27
2018-05-26T14:24:21.952Z,2.73
2018-05-26T14:26:48.682Z,2.77
2018-05-26T14:29:15.318Z,2.80
2018-05-26T14:31:41.957Z,3.30
2018-05-26T14:34:08.569Z,2.90
2018-05-26T14:36:35.209Z,3.13
2018-05-26T14:39:01.833Z,3.23
2018-05-26T14:41:28.512Z,2.97
2018-05-26T14:43:55.121Z,3.20
2018-05-26T14:46:21.736Z,2.80
2018-05-26T14:48:48.434Z,2.67
2018-05-26T14:51:15.055Z,2.20
2018-05-26T14:53:41.720Z,3.07
2018-05-26T14:56:08.340Z,2.47
2018-05-26T14:58:34.959Z,2.63
2018-05-26T15:01:01.624Z,2.40
2018-05-26T15:03:28.237Z,2.60
2018-05-26T15:05:54.871Z,2.87
2018-05-26T15:08:21.490Z,2.43
2018-05-26T15:10:48.093Z,2.53
2018-05-26T15:13:14.865Z,2.87
2018-05-26T15:15:41.450Z,2.50
2018-05-26T15:18:08.078Z,2.47
2018-05-26T15:20:34.741Z,2.80
2018-05-26T15:23:01.354Z,2.40
2018-05-26T15:25:27.989Z,2.63
2018-05-26T15:27:54.602Z,2.40
2018-05-26T15:30:21.299Z,2.67
2018-05-26T15:32:47.929Z,2.80
2018-05-26T15:35:14.554Z,2.80
2018-05-26T15:37:41.178Z,2.83
2018-05-26T15:40:07.790Z,2.67
2018-05-26T15:42:34.425Z,3.03
2018-05-26T15:45:01.055Z,3.70
2018-05-26T15:47:27.670Z,3.80
2018-05-26T15:49:54.404Z,2.80
2018-05-26T15:52:21.013Z,3.47
2018-05-26T15:54:47.681Z,3.93
2018-05-26T15:57:14.332Z,3.43
2018-05-26T15:59:40.946Z,4.00
2018-05-26T16:02:07.601Z,4.53
2018-05-26T16:04:34.213Z,3.70
2018-05-26T16:07:00.888Z,4.10
2018-05-26T16:09:27.492Z,4.30
2018-05-26T16:11:54.161Z,7.43
2018-05-26T16:14:20.781Z,5.07
2018-05-26T16:16:47.432Z,4.60
2018-05-26T16:19:14.069Z,4.50
2018-05-26T16:21:40.717Z,4.00
2018-05-26T16:24:07.333Z,4.03
2018-05-26T16:26:33.953Z,4.43
2018-05-26T16:29:00.571Z,4.40
2018-05-26T16:31:27.200Z,4.60
2018-05-26T16:33:53.805Z,4.67
2018-05-26T16:36:20.457Z,4.20
2018-05-26T16:38:47.119Z,3.50
2018-05-26T16:41:13.821Z,7.30
2018-05-26T16:43:40.460Z,5.10
2018-05-26T16:46:07.068Z,5.90
2018-05-26T16:48:33.694Z,6.00
2018-05-26T16:51:00.313Z,7.43
2018-05-26T16:53:27.059Z,6.40
2018-05-26T16:55:53.691Z,7.20
2018-05-26T16:58:20.336Z,4.87
2018-05-26T17:00:46.945Z,4.80
2018-05-26T17:03:13.581Z,4.90
2018-05-26T17:05:40.198Z,4.80
2018-05-26T17:08:06.834Z,6.77
2018-05-26T17:10:33.460Z,5.50
2018-05-26T17:13:00.137Z,4.73
2018-05-26T17:15:26.761Z,6.73
2018-05-26T17:17:53.418Z,4.80
2018-05-26T17:20:20.155Z,5.07
2018-05-26T17:22:46.778Z,4.50
2018-05-26T17:25:13.398Z,4.40
2018-05-26T17:27:40.026Z,4.97
2018-05-26T17:30:06.694Z,5.13
2018-05-26T17:32:33.336Z,5.70
2018-05-26T17:34:59.949Z,5.77
2018-05-26T17:37:26.557Z,5.50
2018-05-26T17:39:53.262Z,5.43
2018-05-26T17:42:19.882Z,5.40
2018-05-26T17:44:46.509Z,5.67
2018-05-26T17:47:13.124Z,4.57
2018-05-26T17:49:39.738Z,5.10
2018-05-26T17:52:06.371Z,4.10
2018-05-26T17:54:33.033Z,5.63
2018-05-26T17:56:59.655Z,5.30
2018-05-26T17:59:26.269Z,5.10
2018-05-26T18:01:52.880Z,5.70
2018-05-26T18:04:19.558Z,5.50
2018-05-26T18:06:46.175Z,6.50
2018-05-26T18:09:12.836Z,6.10
2018-05-26T18:11:39.441Z,6.47
2018-05-26T18:14:06.058Z,7.27
2018-05-26T18:16:32.748Z,7.07
2018-05-26T18:18:59.398Z,6.50
2018-05-26T18:21:26.030Z,6.20
2018-05-26T18:23:52.636Z,6.83
2018-05-26T18:26:19.246Z,6.40
2018-05-26T18:28:45.878Z,5.67
2018-05-26T18:31:12.586Z,5.90
2018-05-26T18:33:39.226Z,5.85
2018-05-26T18:36:05.858Z,6.05
2018-05-26T18:38:32.483Z,6.78
2018-05-26T18:40:59.119Z,7.30
2018-05-26T18:43:25.737Z,8.15
2018-05-26T18:45:52.383Z,7.62
2018-05-26T18:48:19.052Z,7.95
2018-05-26T18:50:45.689Z,7.47
2018-05-26T18:53:12.338Z,8.75
2018-05-26T18:55:38.966Z,7.40
2018-05-26T18:58:05.616Z,8.07
2018-05-26T19:00:32.240Z,8.50
2018-05-26T19:02:58.889Z,7.55
2018-05-26T19:05:25.512Z,8.90
2018-05-26T19:07:52.130Z,6.97
2018-05-26T19:10:18.812Z,7.82
2018-05-26T19:12:45.446Z,7.22
2018-05-26T19:15:12.090Z,7.40
2018-05-26T19:17:38.835Z,7.60
2018-05-26T19:20:05.450Z,8.32
2018-05-26T19:22:32.102Z,9.57
2018-05-26T19:24:58.724Z,8.65
2018-05-26T19:27:25.339Z,7.60
2018-05-26T19:29:52.059Z,9.00
2018-05-26T19:32:18.673Z,7.30
2018-05-26T19:34:45.411Z,9.90
2018-05-26T19:37:12.145Z,9.60
2018-05-26T19:39:38.763Z,9.27
2018-05-26T19:42:05.389Z,9.07
2018-05-26T19:44:32.014Z,8.25
2018-05-26T19:46:58.649Z,8.45
2018-05-26T19:49:25.256Z,9.10
2018-05-26T19:51:51.887Z,8.98
2018-05-26T19:54:18.530Z,9.48
2018-05-26T19:56:45.145Z,9.95
2018-05-26T19:59:11.791Z,10.48
2018-05-26T20:01:38.437Z,8.70
2018-05-26T20:04:05.072Z,9.80
2018-05-26T20:06:31.825Z,14.07
2018-05-26T20:08:58.691Z,14.63
2018-05-26T20:11:25.321Z,9.70
2018-05-26T20:13:51.959Z,9.20
2018-05-26T20:16:18.668Z,9.88
2018-05-26T20:18:45.303Z,10.48
2018-05-26T20:21:11.939Z,8.95
2018-05-26T20:23:38.561Z,10.35
2018-05-26T20:26:05.235Z,10.55
2018-05-26T20:28:31.873Z,9.65
2018-05-26T20:30:58.522Z,9.70
2018-05-26T20:33:25.158Z,10.05
2018-05-26T20:35:51.894Z,10.05
2018-05-26T20:38:18.515Z,10.85
2018-05-26T20:40:45.175Z,10.70
2018-05-26T20:43:11.817Z,10.68
2018-05-26T20:45:38.453Z,10.95
2018-05-26T20:48:05.191Z,11.45
2018-05-26T20:50:31.817Z,11.85
2018-05-26T20:52:58.452Z,13.35
2018-05-26T20:55:25.113Z,14.27
2018-05-26T20:57:51.742Z,13.60
2018-05-26T21:00:18.382Z,15.23
2018-05-26T21:02:45.024Z,14.55
2018-05-26T21:05:11.674Z,13.30
2018-05-26T21:07:38.318Z,14.35
2018-05-26T21:10:04.946Z,13.45
2018-05-26T21:12:31.584Z,12.20
2018-05-26T21:14:58.218Z,13.15
2018-05-26T21:17:24.865Z,12.93
2018-05-26T21:19:51.502Z,12.88
2018-05-26T21:22:18.138Z,12.88
2018-05-26T21:24:44.766Z,13.88
2018-05-26T21:27:11.419Z,14.73
2018-05-26T21:29:38.033Z,14.10
2018-05-26T21:32:04.690Z,14.10
2018-05-26T21:34:31.316Z,14.05
2018-05-26T21:36:57.937Z,14.32
2018-05-26T21:39:24.572Z,14.18
2018-05-26T21:41:51.256Z,13.80
2018-05-26T21:44:17.898Z,14.55
2018-05-26T21:46:44.642Z,14.50
2018-05-26T21:49:11.271Z,14.23
2018-05-26T21:51:37.904Z,14.77
2018-05-26T21:54:04.535Z,13.05
2018-05-26T21:56:31.217Z,14.95
2018-05-26T21:58:57.935Z,14.87
2018-05-26T22:01:24.565Z,14.48
2018-05-26T22:03:51.201Z,13.48
2018-05-26T22:06:17.830Z,15.20
2018-05-26T22:08:44.481Z,15.35
2018-05-26T22:11:11.123Z,17.15
2018-05-26T22:13:37.766Z,15.93
2018-05-26T22:16:04.505Z,16.20
2018-05-26T22:18:31.134Z,15.07
2018-05-26T22:20:57.804Z,16.15
2018-05-26T22:23:24.412Z,16.05
2018-05-26T22:25:51.029Z,14.93
2018-05-26T22:28:17.670Z,14.95
2018-05-26T22:30:44.309Z,15.60
2018-05-26T22:33:10.945Z,16.02
2018-05-26T22:35:37.580Z,15.05
2018-05-26T22:38:04.209Z,16.60
2018-05-26T22:40:30.837Z,16.30
2018-05-26T22:42:57.536Z,18.08
2018-05-26T22:45:24.179Z,15.40
2018-05-26T22:47:50.797Z,16.45
2018-05-26T22:50:17.423Z,15.20
2018-05-26T22:52:44.103Z,17.80
2018-05-26T22:55:10.720Z,17.85
2018-05-26T22:57:37.367Z,16.58
2018-05-26T23:00:03.984Z,18.70
2018-05-26T23:02:30.648Z,18.98
2018-05-26T23:04:57.315Z,18.42
2018-05-26T23:07:23.947Z,18.35
2018-05-26T23:09:50.589Z,16.98
2018-05-26T23:12:17.301Z,17.40
2018-05-26T23:14:43.938Z,18.00
2018-05-26T23:17:10.699Z,16.87
2018-05-26T23:19:37.322Z,17.58
2018-05-26T23:22:04.066Z,16.15
2018-05-26T23:24:30.688Z,19.33
2018-05-26T23:26:57.313Z,17.08
2018-05-26T23:29:23.954Z,17.60
2018-05-26T23:31:50.621Z,18.73
2018-05-26T23:34:17.269Z,18.65
2018-05-26T23:36:43.929Z,18.73
2018-05-26T23:39:10.551Z,17.35
2018-05-26T23:41:37.282Z,17.77
2018-05-26T23:44:03.949Z,16.85
2018-05-26T23:46:30.656Z,16.48
2018-05-26T23:48:57.289Z,17.25
2018-05-26T23:51:23.933Z,16.70
2018-05-26T23:53:50.560Z,16.48
2018-05-26T23:56:17.190Z,16.20
2018-05-26T23:58:43.866Z,17.25
